Terminal Aerodrome Forecast
Issued by NWS Sioux Falls, SD

Home | Current Version | Previous Version | Graphics & Text | Print | Product List | Glossary Off
Versions: 1 2 3 4 5 6 7 8 9 10 11 12 13 14 15 16 17 18 19 20 21 22

000
FTUS43 KFSD 211728
TAFFSD
TAF
KFSD 211728Z 2118/2218 16015G23KT P6SM SCT140
     FM220000 16010KT P6SM FEW250
     FM220300 15011KT P6SM FEW250 WS017/19050KT
     FM221100 17013KT P6SM FEW120
     FM221700 18020G28KT P6SM FEW120=

USA.gov is the U.S. government's official web portal to all federal, state and local government web resources and services.